createdAt,value
2023-03-15T00:00:32.119Z,1.40
2023-03-15T00:02:33.748Z,3.88
2023-03-15T00:04:37.301Z,1.38
2023-03-15T00:06:38.953Z,1.58
2023-03-15T00:08:40.766Z,1.95
2023-03-15T00:10:43.482Z,1.17
2023-03-15T00:12:45.125Z,2.28
2023-03-15T00:14:46.785Z,1.45
2023-03-15T00:16:48.707Z,1.73
2023-03-15T00:18:50.615Z,1.83
2023-03-15T00:20:52.412Z,2.42
2023-03-15T00:22:53.978Z,1.90
2023-03-15T00:24:55.630Z,2.03
2023-03-15T00:26:57.250Z,2.08
2023-03-15T00:28:59.106Z,2.83
2023-03-15T00:31:21.483Z,1.25
2023-03-15T00:33:23.187Z,3.42
2023-03-15T00:35:24.861Z,1.40
2023-03-15T00:37:26.468Z,3.20
2023-03-15T00:39:28.259Z,2.75
2023-03-15T00:41:29.818Z,1.65
2023-03-15T00:43:31.399Z,1.45
2023-03-15T00:45:33.164Z,1.80
2023-03-15T00:47:34.748Z,3.13
2023-03-15T00:49:36.543Z,3.20
2023-03-15T00:51:38.127Z,3.97
2023-03-15T00:53:42.269Z,1.85
2023-03-15T00:55:43.920Z,7.15
2023-03-15T00:57:46.439Z,1.65
2023-03-15T00:59:48.153Z,2.05
2023-03-15T01:01:49.907Z,3.35
2023-03-15T01:03:51.729Z,2.90
2023-03-15T01:05:53.400Z,6.50
2023-03-15T01:07:55.074Z,2.45
2023-03-15T01:09:56.794Z,2.92
2023-03-15T01:11:59.069Z,2.65
2023-03-15T01:14:00.852Z,3.45
2023-03-15T01:16:02.828Z,1.90
2023-03-15T01:18:04.674Z,4.25
2023-03-15T01:20:07.331Z,2.60
2023-03-15T01:22:08.966Z,3.15
2023-03-15T01:24:15.005Z,2.22
2023-03-15T01:26:18.087Z,3.38
2023-03-15T01:28:19.696Z,8.65
2023-03-15T01:30:21.355Z,4.28
2023-03-15T01:32:23.058Z,3.40
2023-03-15T01:34:25.111Z,7.40
2023-03-15T01:36:30.084Z,2.17
2023-03-15T01:38:32.172Z,3.78
2023-03-15T01:40:33.804Z,3.17
2023-03-15T01:42:51.595Z,2.72
2023-03-15T01:44:57.930Z,4.93
2023-03-15T01:46:59.607Z,9.30
2023-03-15T01:49:22.944Z,2.33
2023-03-15T01:51:31.272Z,4.60
2023-03-15T01:53:33.745Z,2.08
2023-03-15T01:55:35.510Z,3.53
2023-03-15T01:57:49.335Z,2.22
2023-03-15T01:59:54.715Z,4.97
2023-03-15T02:01:56.527Z,7.90
2023-03-15T02:04:08.165Z,3.53
2023-03-15T02:06:10.144Z,3.17
2023-03-15T02:08:12.728Z,2.90
2023-03-15T02:10:15.634Z,2.28
2023-03-15T02:12:18.081Z,4.07
2023-03-15T02:14:19.784Z,3.13
2023-03-15T02:16:22.589Z,3.13
2023-03-15T02:18:24.354Z,3.28
2023-03-15T02:20:46.175Z,5.43
2023-03-15T02:22:52.707Z,5.43
2023-03-15T02:25:04.542Z,4.95
2023-03-15T02:27:06.348Z,3.78
2023-03-15T02:29:08.090Z,5.43
2023-03-15T02:31:10.803Z,4.60
2023-03-15T02:33:26.716Z,9.35
2023-03-15T02:35:32.913Z,6.28
2023-03-15T02:37:34.523Z,5.35
2023-03-15T02:39:36.117Z,6.03
2023-03-15T02:41:42.454Z,4.80
2023-03-15T02:43:44.391Z,7.97
2023-03-15T02:45:46.709Z,9.90
2023-03-15T02:47:49.314Z,9.02
2023-03-15T02:49:52.786Z,6.00
2023-03-15T02:51:54.450Z,5.07
2023-03-15T02:53:56.058Z,3.42
2023-03-15T02:55:58.187Z,4.32
2023-03-15T02:58:00.680Z,4.18
2023-03-15T03:00:14.453Z,4.78
2023-03-15T03:02:16.194Z,6.72
2023-03-15T03:04:17.923Z,3.60
2023-03-15T03:06:19.587Z,4.47
2023-03-15T03:08:21.149Z,4.55
2023-03-15T03:10:23.079Z,7.90
2023-03-15T03:12:24.917Z,12.82
2023-03-15T03:14:26.621Z,4.13
2023-03-15T03:16:28.344Z,3.35
2023-03-15T03:18:30.838Z,6.80
2023-03-15T03:20:33.489Z,4.68
2023-03-15T03:22:35.904Z,5.43
2023-03-15T03:24:37.902Z,5.07
2023-03-15T03:26:39.486Z,9.93
2023-03-15T03:28:41.738Z,5.60
2023-03-15T03:30:43.513Z,7.50
2023-03-15T03:32:45.379Z,5.80
2023-03-15T03:34:48.561Z,10.25
2023-03-15T03:36:50.356Z,11.85
2023-03-15T03:38:53.722Z,6.13
2023-03-15T03:40:55.417Z,7.35
2023-03-15T03:42:59.720Z,6.95
2023-03-15T03:45:01.430Z,5.07
2023-03-15T03:47:03.877Z,10.25
2023-03-15T03:49:05.499Z,12.93
2023-03-15T03:51:10.081Z,11.98
2023-03-15T03:53:11.978Z,5.78
2023-03-15T03:55:13.795Z,7.63
2023-03-15T03:57:15.391Z,11.98
2023-03-15T03:59:16.971Z,8.65
2023-03-15T04:01:18.731Z,9.73
2023-03-15T04:03:21.028Z,10.35
2023-03-15T04:05:22.779Z,9.20
2023-03-15T04:07:24.369Z,9.30
2023-03-15T04:09:26.115Z,7.60
2023-03-15T04:11:27.743Z,12.73
2023-03-15T04:13:29.947Z,12.10
2023-03-15T04:15:31.580Z,5.70
2023-03-15T04:17:33.194Z,8.52
2023-03-15T04:19:35.065Z,17.65
2023-03-15T04:21:37.189Z,7.55
2023-03-15T04:23:39.084Z,7.22
2023-03-15T04:25:41.096Z,11.98
2023-03-15T04:27:42.705Z,6.82
2023-03-15T04:29:44.400Z,6.82
2023-03-15T04:31:46.036Z,10.95
2023-03-15T04:33:47.793Z,6.45
2023-03-15T04:35:49.505Z,13.70
2023-03-15T04:37:51.807Z,6.88
2023-03-15T04:39:53.581Z,8.18
2023-03-15T04:41:55.215Z,15.50
2023-03-15T04:43:56.803Z,6.43
2023-03-15T04:45:58.460Z,15.02
2023-03-15T04:48:01.616Z,8.32
2023-03-15T04:50:03.634Z,6.60
2023-03-15T04:52:05.328Z,7.47
2023-03-15T04:54:06.970Z,12.35
2023-03-15T04:56:08.574Z,10.25
2023-03-15T04:58:10.191Z,13.90
2023-03-15T05:00:13.102Z,7.95
2023-03-15T05:02:14.698Z,7.28
2023-03-15T05:04:16.550Z,8.52
2023-03-15T05:06:18.186Z,8.35
2023-03-15T05:08:20.034Z,13.10
2023-03-15T05:10:21.667Z,8.48
2023-03-15T05:12:24.529Z,8.82
2023-03-15T05:14:26.668Z,14.38
2023-03-15T05:16:28.354Z,9.85
2023-03-15T05:18:30.074Z,15.25
2023-03-15T05:20:32.118Z,14.00
2023-03-15T05:22:33.777Z,7.00
2023-03-15T05:24:35.458Z,7.57
2023-03-15T05:26:37.117Z,8.20
2023-03-15T05:28:38.709Z,16.20
2023-03-15T05:30:40.949Z,7.90
2023-03-15T05:32:44.913Z,7.13
2023-03-15T05:34:46.664Z,8.30
2023-03-15T05:36:48.292Z,15.95
2023-03-15T05:38:49.964Z,7.40
2023-03-15T05:40:51.608Z,11.02
2023-03-15T05:42:53.226Z,11.33
2023-03-15T05:44:55.401Z,7.15
2023-03-15T05:46:57.029Z,17.95
2023-03-15T05:48:58.668Z,7.07
2023-03-15T05:51:00.312Z,7.70
2023-03-15T05:53:03.050Z,8.10
2023-03-15T05:55:05.034Z,8.70
2023-03-15T05:57:12.209Z,10.45
2023-03-15T05:59:22.209Z,8.48
2023-03-15T06:01:27.901Z,13.48
2023-03-15T06:03:31.574Z,7.45
2023-03-15T06:05:36.316Z,7.15
2023-03-15T06:07:46.422Z,17.75
2023-03-15T06:09:48.160Z,7.00
2023-03-15T06:11:49.806Z,9.40
2023-03-15T06:13:58.916Z,7.35
2023-03-15T06:16:00.622Z,9.48
2023-03-15T06:18:02.267Z,8.82
2023-03-15T06:20:05.128Z,14.20
2023-03-15T06:22:06.824Z,6.03
2023-03-15T06:24:08.834Z,6.55
2023-03-15T06:26:10.678Z,12.93
2023-03-15T06:28:26.501Z,6.72
2023-03-15T06:30:35.146Z,5.93
2023-03-15T06:32:37.730Z,6.70
2023-03-15T06:34:39.512Z,6.50
2023-03-15T06:36:42.410Z,6.53
2023-03-15T06:38:44.042Z,5.85
2023-03-15T06:40:46.059Z,7.53
2023-03-15T06:42:47.745Z,8.63
2023-03-15T06:44:51.169Z,10.02
2023-03-15T06:46:53.148Z,9.75
2023-03-15T06:48:54.907Z,7.35
2023-03-15T06:51:06.780Z,7.90
2023-03-15T06:53:08.985Z,8.52
2023-03-15T06:55:12.601Z,6.68
2023-03-15T06:57:14.691Z,8.55
2023-03-15T06:59:28.841Z,14.18
2023-03-15T07:01:31.010Z,8.88
2023-03-15T07:03:32.906Z,7.55
2023-03-15T07:05:34.866Z,5.82
2023-03-15T07:07:36.983Z,6.53
2023-03-15T07:09:39.679Z,7.68
2023-03-15T07:11:41.401Z,6.40
2023-03-15T07:13:50.518Z,8.05
2023-03-15T07:15:56.681Z,7.30
2023-03-15T07:17:58.431Z,8.52
2023-03-15T07:20:00.466Z,10.85
2023-03-15T07:22:04.398Z,6.32
2023-03-15T07:24:07.576Z,6.85
2023-03-15T07:26:09.181Z,7.50
2023-03-15T07:28:10.942Z,9.63
2023-03-15T07:30:13.062Z,7.68
2023-03-15T07:32:14.694Z,8.32
2023-03-15T07:34:16.669Z,7.70
2023-03-15T07:36:25.757Z,8.43
2023-03-15T07:38:31.177Z,6.72
2023-03-15T07:43:17.477Z,5.82
2023-03-15T07:45:39.292Z,6.32
2023-03-15T07:48:19.612Z,7.25
2023-03-15T07:51:10.152Z,6.63
2023-03-15T07:53:26.089Z,8.60
2023-03-15T07:55:46.879Z,7.47
2023-03-15T07:58:20.417Z,6.10
2023-03-15T08:00:23.076Z,6.15
2023-03-15T08:02:29.012Z,6.95
2023-03-15T08:04:31.844Z,8.52
2023-03-15T08:06:33.561Z,6.97
2023-03-15T08:08:35.348Z,8.70
2023-03-15T08:10:37.292Z,6.68
2023-03-15T08:12:40.881Z,6.45
2023-03-15T08:14:44.779Z,7.30
2023-03-15T08:16:53.552Z,7.45
2023-03-15T08:18:55.243Z,7.13
2023-03-15T08:20:59.887Z,8.90
2023-03-15T08:23:19.520Z,6.05
2023-03-15T08:25:29.110Z,9.93
2023-03-15T08:27:52.768Z,5.82
2023-03-15T08:30:07.003Z,4.97
2023-03-15T08:32:09.145Z,6.43
2023-03-15T08:34:12.212Z,6.13
2023-03-15T08:36:14.813Z,13.02
2023-03-15T08:38:16.574Z,6.70
2023-03-15T08:40:26.804Z,6.03
2023-03-15T08:42:31.131Z,5.95
2023-03-15T08:44:37.095Z,9.30
2023-03-15T08:46:38.919Z,9.55
2023-03-15T08:48:41.207Z,8.90
2023-03-15T08:50:42.979Z,8.38
2023-03-15T08:52:57.808Z,8.18
2023-03-15T08:54:59.531Z,8.60
2023-03-15T08:57:01.256Z,7.78
2023-03-15T08:59:28.983Z,6.38
2023-03-15T09:01:36.681Z,8.15
2023-03-15T09:04:03.757Z,8.65
2023-03-15T09:06:07.726Z,6.57
2023-03-15T09:08:09.328Z,11.65
2023-03-15T09:10:15.040Z,7.95
2023-03-15T09:12:29.368Z,10.60
2023-03-15T09:14:43.659Z,11.40
2023-03-15T09:16:57.276Z,9.30
2023-03-15T09:18:59.229Z,8.88
2023-03-15T09:21:05.826Z,8.10
2023-03-15T09:23:08.659Z,7.43
2023-03-15T09:25:34.350Z,8.52
2023-03-15T09:27:53.592Z,8.98
2023-03-15T09:30:18.520Z,16.85
2023-03-15T09:32:41.078Z,9.25
2023-03-15T09:35:14.961Z,14.45
2023-03-15T09:37:51.362Z,8.45
2023-03-15T09:40:03.429Z,8.10
2023-03-15T09:42:24.763Z,8.50
2023-03-15T09:44:42.498Z,7.90
2023-03-15T09:47:06.816Z,8.95
2023-03-15T09:49:29.689Z,8.73
2023-03-15T09:51:41.731Z,8.32
2023-03-15T09:54:28.814Z,8.52
2023-03-15T09:56:36.885Z,8.10
2023-03-15T09:58:38.812Z,8.75
2023-03-15T10:00:53.782Z,8.95
2023-03-15T10:03:01.678Z,7.88
2023-03-15T10:05:17.198Z,8.45
2023-03-15T10:07:18.888Z,8.98
2023-03-15T10:09:23.230Z,8.52
2023-03-15T10:11:35.488Z,10.07
2023-03-15T10:13:55.492Z,8.60
2023-03-15T10:16:09.640Z,9.82
2023-03-15T10:18:27.957Z,10.43
2023-03-15T10:20:34.294Z,8.63
2023-03-15T10:22:53.743Z,10.63
2023-03-15T10:25:19.922Z,12.95
2023-03-15T10:27:21.735Z,13.10
2023-03-15T10:29:25.858Z,11.25
2023-03-15T10:31:41.287Z,10.93
2023-03-15T10:33:47.250Z,10.98
2023-03-15T10:35:49.037Z,9.05
2023-03-15T10:37:51.578Z,12.02
2023-03-15T10:39:56.016Z,10.13
2023-03-15T10:41:57.710Z,9.23
2023-03-15T10:44:04.130Z,10.98
2023-03-15T10:46:11.695Z,9.85
2023-03-15T10:48:13.354Z,9.60
2023-03-15T10:50:29.854Z,9.02
2023-03-15T10:52:38.925Z,7.32
2023-03-15T10:54:41.913Z,7.85
2023-03-15T10:57:15.603Z,8.63
2023-03-15T10:59:25.739Z,7.97
2023-03-15T11:01:37.578Z,10.18
2023-03-15T11:03:41.594Z,9.15
2023-03-15T11:05:45.912Z,8.38
2023-03-15T11:07:59.033Z,7.88
2023-03-15T11:10:02.425Z,8.38
2023-03-15T11:12:08.069Z,6.45
2023-03-15T11:14:21.362Z,7.28
2023-03-15T11:16:23.187Z,7.78
2023-03-15T11:18:31.739Z,7.15
2023-03-15T11:20:39.582Z,7.80
2023-03-15T11:22:56.506Z,5.72
2023-03-15T11:25:09.377Z,6.13
2023-03-15T11:27:14.093Z,5.95
2023-03-15T11:29:28.515Z,7.03
2023-03-15T11:31:31.352Z,6.07
2023-03-15T11:33:58.676Z,6.07
2023-03-15T11:36:06.890Z,6.45
2023-03-15T11:38:15.994Z,5.45
2023-03-15T11:40:22.423Z,4.90
2023-03-15T11:42:30.293Z,5.68
2023-03-15T11:44:40.830Z,5.70
2023-03-15T11:47:01.701Z,6.03
2023-03-15T11:49:16.923Z,5.03
2023-03-15T11:51:18.909Z,4.93
2023-03-15T11:53:36.156Z,4.32
2023-03-15T11:55:37.892Z,5.32
2023-03-15T11:57:47.736Z,4.30
2023-03-15T12:00:22.567Z,5.70
2023-03-15T12:02:37.360Z,4.18
2023-03-15T12:04:51.490Z,3.58
2023-03-15T12:06:55.365Z,3.25
2023-03-15T12:09:39.343Z,2.95
2023-03-15T12:11:42.917Z,3.15
2023-03-15T12:13:59.562Z,3.00
2023-03-15T12:16:07.901Z,3.20
2023-03-15T12:18:17.294Z,3.13
2023-03-15T12:20:30.567Z,2.63
2023-03-15T12:22:33.547Z,3.25
2023-03-15T12:24:40.941Z,3.08
2023-03-15T12:26:46.465Z,2.83
2023-03-15T12:29:00.753Z,2.75
2023-03-15T12:31:16.705Z,2.35
2023-03-15T12:33:21.094Z,1.95
2023-03-15T12:35:24.699Z,1.95
2023-03-15T12:37:38.163Z,3.92
2023-03-15T12:39:46.044Z,1.80
2023-03-15T12:41:50.066Z,1.67
2023-03-15T12:43:52.333Z,1.77
2023-03-15T12:45:53.981Z,1.60
2023-03-15T12:47:55.592Z,2.08
2023-03-15T12:50:35.449Z,1.92
2023-03-15T12:52:42.109Z,2.40
2023-03-15T12:55:15.517Z,1.80
2023-03-15T12:57:30.258Z,1.73
2023-03-15T12:59:47.205Z,1.42
2023-03-15T13:01:51.265Z,1.65
2023-03-15T13:03:58.303Z,1.65
2023-03-15T13:06:14.069Z,1.50
2023-03-15T13:08:24.320Z,2.72
2023-03-15T13:10:47.682Z,1.33
2023-03-15T13:13:10.892Z,1.08
2023-03-15T13:15:34.720Z,1.65
2023-03-15T13:17:58.938Z,1.67
2023-03-15T13:20:16.432Z,2.22
2023-03-15T13:22:27.637Z,1.63
2023-03-15T13:24:57.889Z,1.77
2023-03-15T13:27:19.176Z,1.20
2023-03-15T13:29:29.967Z,1.15
2023-03-15T13:31:32.217Z,1.73
2023-03-15T13:33:41.928Z,1.98
2023-03-15T13:36:08.511Z,1.50
2023-03-15T13:38:23.001Z,1.75
2023-03-15T13:40:24.662Z,1.48
2023-03-15T13:42:26.501Z,1.50
2023-03-15T13:44:29.237Z,1.45
2023-03-15T13:46:31.297Z,2.10
2023-03-15T13:48:35.819Z,1.00
2023-03-15T13:50:38.139Z,0.90
2023-03-15T13:52:41.377Z,1.65
2023-03-15T13:54:44.476Z,0.90
2023-03-15T13:56:58.263Z,1.20
2023-03-15T13:59:02.505Z,1.30
2023-03-15T14:01:07.008Z,1.02
2023-03-15T14:03:14.953Z,1.08
2023-03-15T14:05:18.968Z,0.60
2023-03-15T14:07:30.193Z,1.77
2023-03-15T14:09:31.812Z,1.05
2023-03-15T14:11:38.789Z,0.82
2023-03-15T14:13:53.384Z,1.08
2023-03-15T14:16:06.608Z,1.10
2023-03-15T14:18:08.443Z,3.90
2023-03-15T14:20:16.280Z,2.05
2023-03-15T14:22:19.361Z,0.90
2023-03-15T14:24:42.299Z,1.10
2023-03-15T14:26:44.358Z,1.02
2023-03-15T14:28:56.569Z,1.17
2023-03-15T14:30:59.502Z,1.17
2023-03-15T14:33:04.882Z,1.02
2023-03-15T14:35:06.907Z,3.22
2023-03-15T14:37:29.340Z,1.65
2023-03-15T14:39:38.893Z,1.67
2023-03-15T14:41:41.630Z,1.20
2023-03-15T14:43:43.449Z,1.10
2023-03-15T14:45:47.775Z,1.05
2023-03-15T14:47:57.128Z,1.10
2023-03-15T14:49:59.268Z,1.15
2023-03-15T14:52:03.771Z,1.40
2023-03-15T14:54:06.629Z,1.27
2023-03-15T14:56:11.644Z,1.08
2023-03-15T14:58:23.970Z,0.73
2023-03-15T15:00:25.674Z,0.90
2023-03-15T15:02:28.175Z,0.95
2023-03-15T15:04:33.590Z,1.40
2023-03-15T15:06:38.302Z,0.85
2023-03-15T15:08:42.443Z,1.00
2023-03-15T15:10:45.675Z,1.00
2023-03-15T15:12:50.793Z,1.50
2023-03-15T15:14:58.109Z,3.03
2023-03-15T15:16:59.893Z,0.80
2023-03-15T15:19:01.522Z,1.30
2023-03-15T15:21:12.273Z,1.65
2023-03-15T15:23:22.585Z,2.40
2023-03-15T15:25:24.580Z,1.23
2023-03-15T15:27:26.271Z,1.08
2023-03-15T15:29:28.080Z,1.58
2023-03-15T15:31:34.305Z,1.17
2023-03-15T15:33:36.377Z,1.05
2023-03-15T15:35:38.759Z,0.80
2023-03-15T15:37:41.315Z,0.98
2023-03-15T15:39:43.007Z,0.80
2023-03-15T15:41:44.737Z,1.05
2023-03-15T15:43:46.419Z,1.20
2023-03-15T15:45:51.895Z,0.82
2023-03-15T15:47:53.745Z,1.08
2023-03-15T15:49:55.484Z,1.20
2023-03-15T15:51:57.119Z,1.00
2023-03-15T15:54:00.469Z,1.00
2023-03-15T15:56:02.206Z,0.88
2023-03-15T15:58:04.730Z,1.30
2023-03-15T16:00:08.414Z,1.30
2023-03-15T16:02:15.327Z,1.58
2023-03-15T16:04:17.309Z,1.85
2023-03-15T16:06:20.932Z,5.38
2023-03-15T16:08:24.608Z,2.40
2023-03-15T16:10:30.321Z,1.45
2023-03-15T16:12:35.302Z,3.03
2023-03-15T16:14:36.889Z,1.23
2023-03-15T16:16:39.447Z,1.00
2023-03-15T16:18:41.845Z,1.65
2023-03-15T16:20:43.636Z,1.33
2023-03-15T16:22:48.280Z,1.20
2023-03-15T16:24:53.346Z,0.93
2023-03-15T16:27:01.181Z,2.28
2023-03-15T16:29:02.839Z,1.33
2023-03-15T16:31:04.622Z,1.00
2023-03-15T16:33:14.562Z,1.55
2023-03-15T16:35:16.471Z,1.15
2023-03-15T16:37:22.264Z,0.80
2023-03-15T16:39:23.943Z,2.42
2023-03-15T16:41:25.576Z,0.98
2023-03-15T16:43:27.402Z,0.90
2023-03-15T16:45:29.011Z,1.00
2023-03-15T16:47:30.644Z,1.00
2023-03-15T16:49:32.268Z,2.40
2023-03-15T16:51:34.914Z,1.02
2023-03-15T16:53:39.895Z,2.25
2023-03-15T16:55:41.684Z,1.48
2023-03-15T16:57:43.382Z,2.95
2023-03-15T16:59:45.076Z,2.55
2023-03-15T17:01:47.565Z,4.50
2023-03-15T17:03:49.220Z,3.55
2023-03-15T17:05:50.981Z,6.95
2023-03-15T17:07:53.898Z,4.60
2023-03-15T17:09:55.784Z,4.25
2023-03-15T17:11:58.006Z,6.25
2023-03-15T17:13:59.819Z,5.40
2023-03-15T17:16:01.589Z,2.45
2023-03-15T17:18:03.542Z,2.70
2023-03-15T17:20:10.242Z,8.20
2023-03-15T17:22:12.039Z,4.00
2023-03-15T17:24:14.707Z,3.72
2023-03-15T17:26:19.555Z,3.45
2023-03-15T17:28:21.281Z,3.50
2023-03-15T17:30:25.551Z,8.57
2023-03-15T17:32:27.554Z,3.63
2023-03-15T17:34:29.224Z,4.45
2023-03-15T17:36:35.922Z,3.08
2023-03-15T17:38:40.968Z,3.75
2023-03-15T17:40:42.871Z,3.40
2023-03-15T17:42:44.543Z,3.13
2023-03-15T17:44:46.111Z,4.13
2023-03-15T17:46:48.148Z,4.15
2023-03-15T17:48:49.820Z,4.65
2023-03-15T17:50:51.469Z,3.10
2023-03-15T17:52:58.232Z,2.92
2023-03-15T17:54:59.846Z,3.95
2023-03-15T17:57:01.532Z,3.78
2023-03-15T17:59:03.107Z,2.80
2023-03-15T18:01:10.413Z,2.95
2023-03-15T18:03:13.879Z,2.60
2023-03-15T18:05:23.902Z,2.30
2023-03-15T18:07:28.847Z,3.08
2023-03-15T18:09:30.983Z,2.50
2023-03-15T18:11:36.004Z,3.40
2023-03-15T18:13:40.840Z,10.18
2023-03-15T18:15:42.585Z,5.50
2023-03-15T18:17:44.539Z,3.03
2023-03-15T18:19:46.195Z,3.72
2023-03-15T18:21:47.884Z,11.18
2023-03-15T18:23:50.274Z,4.55
2023-03-15T18:25:52.314Z,4.93
2023-03-15T18:27:54.598Z,5.82
2023-03-15T18:29:58.188Z,5.60
2023-03-15T18:31:59.893Z,6.30
2023-03-15T18:34:03.518Z,3.45
2023-03-15T18:36:05.462Z,2.95
2023-03-15T18:38:07.084Z,2.15
2023-03-15T18:40:10.293Z,2.55
2023-03-15T18:42:12.013Z,2.33
2023-03-15T18:44:13.646Z,5.00
2023-03-15T18:46:17.451Z,2.63
2023-03-15T18:48:27.849Z,2.78
2023-03-15T18:50:36.267Z,3.55
2023-03-15T18:52:37.922Z,3.63
2023-03-15T18:54:39.554Z,4.05
2023-03-15T18:56:43.195Z,3.60
2023-03-15T18:58:46.303Z,4.07
2023-03-15T19:00:49.152Z,3.70
2023-03-15T19:02:51.064Z,5.10
2023-03-15T19:04:52.786Z,3.92
2023-03-15T19:06:54.452Z,4.43
2023-03-15T19:08:57.147Z,4.18
2023-03-15T19:11:00.108Z,4.88
2023-03-15T19:13:04.083Z,4.72
2023-03-15T19:15:07.343Z,6.38
2023-03-15T19:17:09.876Z,5.15
2023-03-15T19:19:11.469Z,5.72
2023-03-15T19:21:13.534Z,8.93
2023-03-15T19:23:15.282Z,6.25
2023-03-15T19:25:16.959Z,9.48
2023-03-15T19:27:18.626Z,8.00
2023-03-15T19:29:20.238Z,13.05
2023-03-15T19:31:22.389Z,16.55
2023-03-15T19:33:24.254Z,19.63
2023-03-15T19:35:27.164Z,23.77
2023-03-15T19:37:28.870Z,24.60
2023-03-15T19:39:30.663Z,17.63
2023-03-15T19:41:32.301Z,10.82
2023-03-15T19:43:34.187Z,7.47
2023-03-15T19:45:35.913Z,8.73
2023-03-15T19:47:37.772Z,9.68
2023-03-15T19:49:39.688Z,11.85
2023-03-15T19:51:41.404Z,11.13
2023-03-15T19:53:43.024Z,11.85
2023-03-15T19:55:44.813Z,15.55
2023-03-15T19:57:47.155Z,14.23
2023-03-15T19:59:49.710Z,12.13
2023-03-15T20:01:51.554Z,9.70
2023-03-15T20:03:53.222Z,7.35
2023-03-15T20:05:54.945Z,7.88
2023-03-15T20:07:56.562Z,7.53
2023-03-15T20:09:58.181Z,7.20
2023-03-15T20:12:00.235Z,7.22
2023-03-15T20:14:02.276Z,6.35
2023-03-15T20:16:05.966Z,6.70
2023-03-15T20:18:10.409Z,6.70
2023-03-15T20:20:13.874Z,6.90
2023-03-15T20:22:15.571Z,7.38
2023-03-15T20:24:17.214Z,7.90
2023-03-15T20:26:19.244Z,6.47
2023-03-15T20:28:20.924Z,6.13
2023-03-15T20:30:22.861Z,5.32
2023-03-15T20:32:25.317Z,6.45
2023-03-15T20:34:30.128Z,5.55
2023-03-15T20:36:33.560Z,6.35
2023-03-15T20:38:37.345Z,7.57
2023-03-15T20:40:39.151Z,9.95
2023-03-15T20:42:41.923Z,11.30
2023-03-15T20:44:46.287Z,10.45
2023-03-15T20:46:48.107Z,10.88
2023-03-15T20:48:49.755Z,8.85
2023-03-15T20:50:52.441Z,7.93
2023-03-15T20:52:54.053Z,10.63
2023-03-15T20:54:55.733Z,5.75
2023-03-15T20:56:57.831Z,6.25
2023-03-15T20:58:59.517Z,6.20
2023-03-15T21:01:04.010Z,6.85
2023-03-15T21:03:05.693Z,6.72
2023-03-15T21:05:08.974Z,6.40
2023-03-15T21:07:11.354Z,6.60
2023-03-15T21:09:12.990Z,6.50
2023-03-15T21:11:14.711Z,6.30
2023-03-15T21:13:16.658Z,6.75
2023-03-15T21:15:19.049Z,6.55
2023-03-15T21:17:20.673Z,6.60
2023-03-15T21:19:22.950Z,9.60
2023-03-15T21:21:24.626Z,7.50
2023-03-15T21:23:31.084Z,9.18
2023-03-15T21:25:32.790Z,9.68
2023-03-15T21:27:34.538Z,15.38
2023-03-15T21:29:37.475Z,19.20
2023-03-15T21:31:39.225Z,14.05
2023-03-15T21:33:40.903Z,10.25
2023-03-15T21:35:43.136Z,12.00
2023-03-15T21:37:45.222Z,9.32
2023-03-15T21:39:46.816Z,7.57
2023-03-15T21:41:48.536Z,8.48
2023-03-15T21:43:50.172Z,8.48
2023-03-15T21:45:52.107Z,11.50
2023-03-15T21:47:53.747Z,16.55
2023-03-15T21:49:55.475Z,18.60
2023-03-15T21:51:57.590Z,21.02
2023-03-15T21:53:59.173Z,25.25
2023-03-15T21:56:02.160Z,22.95
2023-03-15T21:58:04.948Z,23.48
2023-03-15T22:00:11.749Z,27.98
2023-03-15T22:02:14.309Z,31.58
2023-03-15T22:04:16.166Z,19.20
2023-03-15T22:06:18.062Z,15.02
2023-03-15T22:08:19.928Z,12.27
2023-03-15T22:10:23.295Z,10.57
2023-03-15T22:12:27.810Z,7.90
2023-03-15T22:14:29.436Z,9.00
2023-03-15T22:16:33.390Z,7.82
2023-03-15T22:18:35.092Z,7.32
2023-03-15T22:20:37.796Z,8.10
2023-03-15T22:22:39.410Z,9.55
2023-03-15T22:24:41.834Z,19.25
2023-03-15T22:26:43.457Z,43.38
2023-03-15T22:28:45.148Z,46.13
2023-03-15T22:30:49.188Z,52.03
2023-03-15T22:32:50.870Z,44.83
2023-03-15T22:34:52.566Z,45.10
2023-03-15T22:36:54.209Z,36.20
2023-03-15T22:38:55.829Z,27.08
2023-03-15T22:41:17.806Z,31.40
2023-03-15T22:43:19.948Z,22.88
2023-03-15T22:45:21.920Z,27.15
2023-03-15T22:47:23.573Z,25.58
2023-03-15T22:49:25.159Z,18.20
2023-03-15T22:51:26.878Z,17.38
2023-03-15T22:53:29.589Z,13.55
2023-03-15T22:55:31.304Z,12.18
2023-03-15T22:57:33.799Z,9.32
2023-03-15T22:59:35.497Z,7.75
2023-03-15T23:01:37.251Z,7.45
2023-03-15T23:03:38.861Z,5.32
2023-03-15T23:05:41.497Z,5.72
2023-03-15T23:07:43.154Z,5.05
2023-03-15T23:09:45.126Z,5.05
2023-03-15T23:11:49.624Z,5.70
2023-03-15T23:13:53.906Z,5.05
2023-03-15T23:15:55.669Z,4.60
2023-03-15T23:17:57.334Z,4.18
2023-03-15T23:19:59.050Z,5.65
2023-03-15T23:22:04.674Z,5.40
2023-03-15T23:24:07.521Z,5.55
2023-03-15T23:26:09.739Z,4.28
2023-03-15T23:28:11.396Z,3.97
2023-03-15T23:30:14.076Z,4.80
2023-03-15T23:32:15.661Z,5.45
2023-03-15T23:34:17.273Z,5.10
2023-03-15T23:36:18.961Z,4.25
2023-03-15T23:38:20.670Z,7.40
2023-03-15T23:40:22.796Z,5.68
2023-03-15T23:42:25.889Z,4.40
2023-03-15T23:44:27.655Z,5.05
2023-03-15T23:46:29.359Z,7.03
2023-03-15T23:48:35.273Z,6.28
2023-03-15T23:50:38.232Z,5.53
2023-03-15T23:52:40.294Z,4.97
2023-03-15T23:54:42.441Z,4.68
2023-03-15T23:56:44.013Z,5.35
2023-03-15T23:58:45.595Z,4.40
